Aviation Digital Data Service (ADDS)

Output produced by METARs form (0729 UTC 20 March 2019)
found at http://www.aviationweather.gov/metar/data/
 
Forecast for: VTUI (SAKON NAKHON , TH)
Text: TAF VTUI 200500Z 2006/2106 12006KT 7000 FEW030
Forecast period: 0600 to 2200 UTC 20 March 2019
Forecast type: FROM: standard forecast or significant change
Winds: from the ESE (120 degrees) at 7 MPH (6 knots; 3.1 m/s)
Visibility: 4 miles (7 km)
Ceiling: at least 12,000 feet AGL
Clouds: few clouds at 3000 feet AGL
Weather: no significant weather forecast for this period
Text: BECMG 2022/2024 3000 BR
Forecast period: 2200 UTC 20 March 2019 to 0100 UTC 21 March 2019
Forecast type: BECOMING: Conditions expected to become as follows by 0000 UTC 21 March 2019
Winds: from the ESE (120 degrees) at 7 MPH (6 knots; 3.1 m/s)
Visibility: 1.86 miles (2.99 km)
Ceiling: at least 12,000 feet AGL
Clouds: few clouds at 3000 feet AGL
Weather: BR  (mist)
Text: BECMG 2101/2103 8000 NSW
Forecast period: 0100 to 0600 UTC 21 March 2019
Forecast type: BECOMING: Conditions expected to become as follows by 0300 UTC 21 March 2019
Winds: from the ESE (120 degrees) at 7 MPH (6 knots; 3.1 m/s)
Visibility: 5 miles (8 km)
Ceiling: at least 12,000 feet AGL
Clouds: few clouds at 3000 feet AGL
Weather: NSW  (no significant weather)